Terminal Aerodrome Forecast
Issued by NWS Wilmington, OH

Current Version | Previous Version | Graphics & Text | Print | Product List | Glossary On
Versions: 1 2 3 4 5 6 7 8 9 10 11 12 13 14 15 16 17 18 19 20 21
000
FTUS41 KILN 251736
TAFILN
TAF
KILN 251736Z 2518/2618 20014KT P6SM BKN130
     FM260400 14006KT P6SM VCSH BKN090
     FM260800 16006KT 6SM -SHRA BR OVC090
     FM261200 16007KT 4SM -SHRA BR OVC025=

USA.gov is the U.S. government's official web portal to all federal, state and local government web resources and services.